createdAt,value
2019-02-28T00:00:06.544Z,1.92
2019-02-28T00:02:34.036Z,1.80
2019-02-28T00:05:05.803Z,1.85
2019-02-28T00:07:30.730Z,2.10
2019-02-28T00:09:58.442Z,1.72
2019-02-28T00:12:26.071Z,2.33
2019-02-28T00:14:53.462Z,2.37
2019-02-28T00:17:20.824Z,1.90
2019-02-28T00:19:48.263Z,2.08
2019-02-28T00:22:15.690Z,2.05
2019-02-28T00:24:43.150Z,2.40
2019-02-28T00:27:10.503Z,2.20
2019-02-28T00:29:37.985Z,3.00
2019-02-28T00:32:05.445Z,1.90
2019-02-28T00:34:32.915Z,2.25
2019-02-28T00:37:00.341Z,2.45
2019-02-28T00:39:27.750Z,2.20
2019-02-28T00:41:55.180Z,1.80
2019-02-28T00:44:22.615Z,1.80
2019-02-28T00:46:50.027Z,2.12
2019-02-28T00:49:17.458Z,2.22
2019-02-28T00:51:45.179Z,1.80
2019-02-28T00:54:12.788Z,2.27
2019-02-28T00:56:40.202Z,1.90
2019-02-28T00:59:07.559Z,2.37
2019-02-28T01:01:34.914Z,2.30
2019-02-28T01:04:02.264Z,2.10
2019-02-28T01:06:29.711Z,2.67
2019-02-28T01:08:57.207Z,2.42
2019-02-28T01:11:24.658Z,2.10
2019-02-28T01:13:52.032Z,2.17
2019-02-28T01:16:20.122Z,2.25
2019-02-28T01:18:47.503Z,2.40
2019-02-28T01:21:14.991Z,2.30
2019-02-28T01:23:42.470Z,2.87
2019-02-28T01:26:11.708Z,2.83
2019-02-28T01:28:39.592Z,2.70
2019-02-28T01:31:07.117Z,2.30
2019-02-28T01:33:34.772Z,2.47
2019-02-28T01:36:02.214Z,3.25
2019-02-28T01:38:29.588Z,2.45
2019-02-28T01:40:57.291Z,2.65
2019-02-28T01:43:28.497Z,3.20
2019-02-28T01:45:54.153Z,3.72
2019-02-28T01:48:22.675Z,3.20
2019-02-28T01:50:50.672Z,2.85
2019-02-28T01:53:19.513Z,2.92
2019-02-28T01:55:47.100Z,2.70
2019-02-28T01:58:16.888Z,2.98
2019-02-28T02:00:44.767Z,3.00
2019-02-28T02:03:12.427Z,2.85
2019-02-28T02:05:40.401Z,3.22
2019-02-28T02:08:07.920Z,2.90
2019-02-28T02:10:35.603Z,2.98
2019-02-28T02:13:03.442Z,3.90
2019-02-28T02:15:31.907Z,3.58
2019-02-28T02:17:59.413Z,4.10
2019-02-28T02:20:26.986Z,4.03
2019-02-28T02:22:54.564Z,4.75
2019-02-28T02:25:21.954Z,4.92
2019-02-28T02:27:52.825Z,4.33
2019-02-28T02:30:20.012Z,4.17
2019-02-28T02:32:47.482Z,3.72
2019-02-28T02:35:15.064Z,3.72
2019-02-28T02:37:42.554Z,4.30
2019-02-28T02:40:10.490Z,5.25
2019-02-28T02:42:37.961Z,5.28
2019-02-28T02:45:06.739Z,5.40
2019-02-28T02:47:34.213Z,5.22
2019-02-28T02:50:01.603Z,4.97
2019-02-28T02:52:30.538Z,4.42
2019-02-28T02:54:58.048Z,4.47
2019-02-28T02:57:25.452Z,3.95
2019-02-28T02:59:53.169Z,3.22
2019-02-28T03:02:20.649Z,3.95
2019-02-28T03:04:48.017Z,3.92
2019-02-28T03:07:23.014Z,3.45
2019-02-28T03:09:44.894Z,3.58
2019-02-28T03:12:12.359Z,3.42
2019-02-28T03:14:39.767Z,3.33
2019-02-28T03:17:11.507Z,3.75
2019-02-28T03:19:36.431Z,3.80
2019-02-28T03:22:03.889Z,3.77
2019-02-28T03:24:31.424Z,3.58
2019-02-28T03:26:58.865Z,3.85
2019-02-28T03:29:26.266Z,3.55
2019-02-28T03:31:56.593Z,3.42
2019-02-28T03:34:22.850Z,4.33
2019-02-28T03:36:55.454Z,4.40
2019-02-28T03:39:24.115Z,4.97
2019-02-28T03:41:52.949Z,5.40
2019-02-28T03:44:21.384Z,5.70
2019-02-28T03:46:47.981Z,4.83
2019-02-28T03:49:15.455Z,5.00
2019-02-28T03:51:42.774Z,5.30
2019-02-28T03:54:10.258Z,5.12
2019-02-28T03:56:37.698Z,5.05
2019-02-28T03:59:05.169Z,5.08
2019-02-28T04:01:32.506Z,4.33
2019-02-28T04:04:00.008Z,4.62
2019-02-28T04:06:27.333Z,4.20
2019-02-28T04:08:54.764Z,4.75
2019-02-28T04:11:22.198Z,4.40
2019-02-28T04:13:52.435Z,3.60
2019-02-28T04:16:19.018Z,4.15
2019-02-28T04:18:47.578Z,4.00
2019-02-28T04:21:15.174Z,4.08
2019-02-28T04:23:42.560Z,3.80
2019-02-28T04:26:10.007Z,3.70
2019-02-28T04:28:37.314Z,3.90
2019-02-28T04:31:04.935Z,4.40
2019-02-28T04:33:37.526Z,4.55
2019-02-28T04:36:01.711Z,6.12
2019-02-28T04:38:29.153Z,6.20
2019-02-28T04:40:58.851Z,6.17
2019-02-28T04:43:25.796Z,6.45
2019-02-28T04:45:53.385Z,6.67
2019-02-28T04:48:20.942Z,7.03
2019-02-28T04:50:48.389Z,6.03
2019-02-28T04:53:18.880Z,4.97
2019-02-28T04:55:45.828Z,4.70
2019-02-28T04:58:13.264Z,4.15
2019-02-28T05:00:40.725Z,4.85
2019-02-28T05:03:08.158Z,5.00
2019-02-28T05:05:35.943Z,4.35
2019-02-28T05:08:05.729Z,4.00
2019-02-28T05:10:33.062Z,4.33
2019-02-28T05:13:00.839Z,4.67
2019-02-28T05:15:28.334Z,4.42
2019-02-28T05:17:56.796Z,5.45
2019-02-28T05:20:24.297Z,4.42
2019-02-28T05:22:52.096Z,5.22
2019-02-28T05:25:19.550Z,5.60
2019-02-28T05:27:47.560Z,4.70
2019-02-28T05:30:17.974Z,5.40
2019-02-28T05:32:44.235Z,4.97
2019-02-28T05:35:11.825Z,5.17
2019-02-28T05:37:39.754Z,5.10
2019-02-28T05:40:08.936Z,5.08
2019-02-28T05:42:36.384Z,5.15
2019-02-28T05:45:04.093Z,4.87
2019-02-28T05:47:32.463Z,5.55
2019-02-28T05:50:01.204Z,6.45
2019-02-28T05:52:30.546Z,5.40
2019-02-28T05:54:57.990Z,6.12
2019-02-28T05:57:25.529Z,6.10
2019-02-28T05:59:53.481Z,7.22
2019-02-28T06:02:22.525Z,6.95
2019-02-28T06:04:51.262Z,7.95
2019-02-28T06:07:18.803Z,9.23
2019-02-28T06:09:48.683Z,9.50
2019-02-28T06:12:15.752Z,10.20
2019-02-28T06:14:43.271Z,11.18
2019-02-28T06:17:10.738Z,9.83
2019-02-28T06:19:40.279Z,11.28
2019-02-28T06:22:08.292Z,11.15
2019-02-28T06:24:35.935Z,11.35
2019-02-28T06:27:03.708Z,11.53
2019-02-28T06:29:33.154Z,10.82
2019-02-28T06:32:00.625Z,11.12
2019-02-28T06:34:28.052Z,10.08
2019-02-28T06:36:55.579Z,13.08
2019-02-28T06:39:22.978Z,11.38
2019-02-28T06:41:50.389Z,10.93
2019-02-28T06:44:18.406Z,12.30
2019-02-28T06:46:46.482Z,10.40
2019-02-28T06:49:13.939Z,12.07
2019-02-28T06:51:41.789Z,12.33
2019-02-28T06:54:09.335Z,12.60
2019-02-28T06:56:36.785Z,12.28
2019-02-28T06:59:04.947Z,13.28
2019-02-28T07:01:32.917Z,11.97
2019-02-28T07:04:00.343Z,12.30
2019-02-28T07:06:27.670Z,13.43
2019-02-28T07:08:55.064Z,14.20
2019-02-28T07:11:22.541Z,14.07
2019-02-28T07:13:50.075Z,14.23
2019-02-28T07:16:17.607Z,12.28
2019-02-28T07:18:44.994Z,13.55
2019-02-28T07:21:12.727Z,13.20
2019-02-28T07:23:40.465Z,14.28
2019-02-28T07:26:07.986Z,14.07
2019-02-28T07:28:37.477Z,13.05
2019-02-28T07:31:04.699Z,15.32
2019-02-28T07:33:32.637Z,14.93
2019-02-28T07:36:00.125Z,13.40
2019-02-28T07:38:29.016Z,15.00
2019-02-28T07:40:56.851Z,14.15
2019-02-28T07:43:24.281Z,14.33
2019-02-28T07:45:52.278Z,14.93
2019-02-28T07:48:19.631Z,15.25
2019-02-28T07:50:47.710Z,15.55
2019-02-28T07:53:15.185Z,16.45
2019-02-28T07:55:42.762Z,16.27
2019-02-28T07:58:10.320Z,16.25
2019-02-28T08:00:38.048Z,14.58
2019-02-28T08:03:06.030Z,15.50
2019-02-28T08:05:33.398Z,16.37
2019-02-28T08:08:00.849Z,16.35
2019-02-28T08:10:28.690Z,16.93
2019-02-28T08:12:56.453Z,16.37
2019-02-28T08:15:23.989Z,17.48
2019-02-28T08:17:51.526Z,17.05
2019-02-28T08:20:19.742Z,17.90
2019-02-28T08:22:47.289Z,17.48
2019-02-28T08:25:14.825Z,17.82
2019-02-28T08:27:42.240Z,15.65
2019-02-28T08:30:19.593Z,17.80
2019-02-28T08:32:47.229Z,15.08
2019-02-28T08:35:14.972Z,14.15
2019-02-28T08:37:42.392Z,17.37
2019-02-28T08:40:12.547Z,15.98
2019-02-28T08:42:41.745Z,16.52
2019-02-28T08:45:10.897Z,17.75
2019-02-28T08:47:38.284Z,17.82
2019-02-28T08:50:08.096Z,16.55
2019-02-28T08:52:37.676Z,16.90
2019-02-28T08:55:09.082Z,16.48
2019-02-28T08:57:35.921Z,16.85
2019-02-28T09:00:04.379Z,17.12
2019-02-28T09:02:31.713Z,17.25
2019-02-28T09:04:59.172Z,17.17
2019-02-28T09:07:27.280Z,17.10
2019-02-28T09:09:54.928Z,18.05
2019-02-28T09:12:22.688Z,19.42
2019-02-28T09:14:51.972Z,17.42
2019-02-28T09:17:19.693Z,17.57
2019-02-28T09:19:47.155Z,15.55
2019-02-28T09:22:14.556Z,15.40
2019-02-28T09:24:43.722Z,16.73
2019-02-28T09:27:12.277Z,16.40
2019-02-28T09:29:39.905Z,18.35
2019-02-28T09:32:10.228Z,16.05
2019-02-28T09:34:37.462Z,16.07
2019-02-28T09:37:04.902Z,16.20
2019-02-28T09:39:32.390Z,17.23
2019-02-28T09:41:59.819Z,16.10
2019-02-28T09:44:31.330Z,16.85
2019-02-28T09:46:57.090Z,15.95
2019-02-28T09:49:24.761Z,16.52
2019-02-28T09:51:52.337Z,17.00
2019-02-28T09:54:21.381Z,15.90
2019-02-28T09:56:49.352Z,16.73
2019-02-28T09:59:16.882Z,16.30
2019-02-28T10:01:45.098Z,14.95
2019-02-28T10:04:12.586Z,15.80
2019-02-28T10:06:40.071Z,14.13
2019-02-28T10:09:08.754Z,16.48
2019-02-28T10:11:37.298Z,14.45
2019-02-28T10:14:05.408Z,16.12
2019-02-28T10:16:33.027Z,16.15
2019-02-28T10:19:01.485Z,14.80
2019-02-28T10:21:29.483Z,15.13
2019-02-28T10:23:57.913Z,14.58
2019-02-28T10:26:25.827Z,15.35
2019-02-28T10:28:53.337Z,16.50
2019-02-28T10:31:22.859Z,16.75
2019-02-28T10:33:52.500Z,15.38
2019-02-28T10:36:19.735Z,14.20
2019-02-28T10:38:47.524Z,15.40
2019-02-28T10:41:15.450Z,14.95
2019-02-28T10:43:43.183Z,13.95
2019-02-28T10:46:13.325Z,13.48
2019-02-28T10:48:50.449Z,16.62
2019-02-28T10:51:13.918Z,15.05
2019-02-28T10:53:40.142Z,16.30
2019-02-28T10:56:08.803Z,14.70
2019-02-28T10:58:36.321Z,14.65
2019-02-28T11:01:08.664Z,16.57
2019-02-28T11:03:35.258Z,14.93
2019-02-28T11:06:02.681Z,15.25
2019-02-28T11:08:30.356Z,16.75
2019-02-28T11:10:58.539Z,14.63
2019-02-28T11:13:28.581Z,15.80
2019-02-28T11:15:55.348Z,16.40
2019-02-28T11:18:23.400Z,16.77
2019-02-28T11:20:51.766Z,15.63
2019-02-28T11:23:20.504Z,16.55
2019-02-28T11:25:47.953Z,15.23
2019-02-28T11:28:15.475Z,16.37
2019-02-28T11:30:44.751Z,16.12
2019-02-28T11:33:13.001Z,15.25
2019-02-28T11:35:40.924Z,15.35
2019-02-28T11:38:08.714Z,15.98
2019-02-28T11:40:36.448Z,15.65
2019-02-28T11:43:04.072Z,13.43
2019-02-28T11:45:32.489Z,13.90
2019-02-28T11:48:01.299Z,14.70
2019-02-28T11:50:29.258Z,15.32
2019-02-28T11:53:03.254Z,15.30
2019-02-28T11:55:27.160Z,16.10
2019-02-28T11:57:54.595Z,14.38
2019-02-28T12:00:27.648Z,16.75
2019-02-28T12:02:59.938Z,13.95
2019-02-28T12:05:25.213Z,16.02
2019-02-28T12:07:52.822Z,14.43
2019-02-28T12:10:20.130Z,14.53
2019-02-28T12:12:47.552Z,14.55
2019-02-28T12:15:16.036Z,13.93
2019-02-28T12:17:43.547Z,15.38
2019-02-28T12:20:11.828Z,15.25
2019-02-28T12:22:39.288Z,13.22
2019-02-28T12:25:08.366Z,14.23
2019-02-28T12:27:35.797Z,14.30
2019-02-28T12:30:04.688Z,14.05
2019-02-28T12:32:32.155Z,13.30
2019-02-28T12:35:01.369Z,12.73
2019-02-28T12:37:29.209Z,13.95
2019-02-28T12:39:56.938Z,13.83
2019-02-28T12:42:24.320Z,13.70
2019-02-28T12:44:51.658Z,12.68
2019-02-28T12:47:19.416Z,13.28
2019-02-28T12:49:47.199Z,13.45
2019-02-28T12:52:15.356Z,14.30
2019-02-28T12:54:43.050Z,13.50
2019-02-28T12:57:11.261Z,13.38
2019-02-28T12:59:41.911Z,13.00
2019-02-28T13:02:09.324Z,12.60
2019-02-28T13:04:37.448Z,13.88
2019-02-28T13:07:04.808Z,12.63
2019-02-28T13:09:32.609Z,13.68
2019-02-28T13:12:00.124Z,12.53
2019-02-28T13:14:28.338Z,13.80
2019-02-28T13:16:57.556Z,14.43
2019-02-28T13:19:25.243Z,14.03
2019-02-28T13:21:52.765Z,16.05
2019-02-28T13:24:20.268Z,15.03
2019-02-28T13:26:48.306Z,16.42
2019-02-28T13:29:16.149Z,15.25
2019-02-28T13:31:43.872Z,14.65
2019-02-28T13:34:11.739Z,14.58
2019-02-28T13:36:39.926Z,14.20
2019-02-28T13:39:08.203Z,15.65
2019-02-28T13:41:36.036Z,14.10
2019-02-28T13:44:03.698Z,14.60
2019-02-28T13:46:33.915Z,14.87
2019-02-28T13:49:00.651Z,16.05
2019-02-28T13:51:28.117Z,14.83
2019-02-28T13:53:55.710Z,16.27
2019-02-28T13:56:23.406Z,15.83
2019-02-28T13:58:53.669Z,15.85
2019-02-28T14:01:20.390Z,15.53
2019-02-28T14:03:47.807Z,14.63
2019-02-28T14:06:19.647Z,13.28
2019-02-28T14:08:46.009Z,13.65
2019-02-28T14:11:14.432Z,14.87
2019-02-28T14:13:41.966Z,15.75
2019-02-28T14:16:09.546Z,14.50
2019-02-28T14:18:37.100Z,14.10
2019-02-28T14:21:04.468Z,12.33
2019-02-28T14:23:32.283Z,14.20
2019-02-28T14:25:59.640Z,13.18
2019-02-28T14:28:27.272Z,15.35
2019-02-28T14:30:57.571Z,15.20
2019-02-28T14:33:25.888Z,14.78
2019-02-28T14:35:53.406Z,13.18
2019-02-28T14:38:20.724Z,14.07
2019-02-28T14:40:49.703Z,14.00
2019-02-28T14:43:19.643Z,13.62
2019-02-28T14:45:47.841Z,13.20
2019-02-28T14:48:15.232Z,13.68
2019-02-28T14:50:42.861Z,13.18
2019-02-28T14:53:13.105Z,11.50
2019-02-28T14:55:39.551Z,12.13
2019-02-28T14:58:07.052Z,11.28
2019-02-28T15:00:35.423Z,10.60
2019-02-28T15:03:03.939Z,11.08
2019-02-28T15:05:31.491Z,10.58
2019-02-28T15:07:59.290Z,9.18
2019-02-28T15:10:27.029Z,9.83
2019-02-28T15:12:55.397Z,9.03
2019-02-28T15:15:24.371Z,9.33
2019-02-28T15:17:51.802Z,10.55
2019-02-28T15:20:19.164Z,8.50
2019-02-28T15:22:46.685Z,9.03
2019-02-28T15:25:18.436Z,8.93
2019-02-28T15:27:44.947Z,9.05
2019-02-28T15:30:14.768Z,8.08
2019-02-28T15:32:42.184Z,9.18
2019-02-28T15:35:12.427Z,8.53
2019-02-28T15:37:40.973Z,9.58
2019-02-28T15:40:10.626Z,9.53
2019-02-28T15:42:39.674Z,9.95
2019-02-28T15:45:08.203Z,10.53
2019-02-28T15:47:35.821Z,11.70
2019-02-28T15:50:04.364Z,12.37
2019-02-28T15:52:31.728Z,13.05
2019-02-28T15:55:01.983Z,12.93
2019-02-28T15:57:30.118Z,14.43
2019-02-28T15:59:58.653Z,14.58
2019-02-28T16:02:26.439Z,14.47
2019-02-28T16:04:54.060Z,15.35
2019-02-28T16:07:21.583Z,14.53
2019-02-28T16:09:50.828Z,12.98
2019-02-28T16:12:18.262Z,11.43
2019-02-28T16:14:45.662Z,11.83
2019-02-28T16:17:13.386Z,11.70
2019-02-28T16:19:40.693Z,10.48
2019-02-28T16:22:08.146Z,9.60
2019-02-28T16:24:36.781Z,8.93
2019-02-28T16:27:04.689Z,9.50
2019-02-28T16:29:32.034Z,8.55
2019-02-28T16:31:59.820Z,7.45
2019-02-28T16:34:27.341Z,7.72
2019-02-28T16:36:57.422Z,6.87
2019-02-28T16:39:23.986Z,6.62
2019-02-28T16:41:51.452Z,6.08
2019-02-28T16:44:18.996Z,6.17
2019-02-28T16:46:49.909Z,6.28
2019-02-28T16:49:15.685Z,5.78
2019-02-28T16:51:43.192Z,6.58
2019-02-28T16:54:10.564Z,6.83
2019-02-28T16:56:38.786Z,6.75
2019-02-28T16:59:06.180Z,6.53
2019-02-28T17:01:33.580Z,6.45
2019-02-28T17:04:01.309Z,7.50
2019-02-28T17:06:28.841Z,7.05
2019-02-28T17:09:33.555Z,6.53
2019-02-28T17:12:12.810Z,6.65
2019-02-28T17:14:40.362Z,5.95
2019-02-28T17:17:12.526Z,6.58
2019-02-28T17:19:39.946Z,6.08
2019-02-28T17:22:07.415Z,6.60
2019-02-28T17:24:35.107Z,6.10
2019-02-28T17:27:17.711Z,5.83
2019-02-28T17:30:17.060Z,5.58
2019-02-28T17:32:44.910Z,6.00
2019-02-28T17:35:12.715Z,6.22
2019-02-28T17:37:41.119Z,7.30
2019-02-28T17:40:08.547Z,5.97
2019-02-28T17:42:35.888Z,5.65
2019-02-28T17:45:33.261Z,6.45
2019-02-28T17:48:39.125Z,7.25
2019-02-28T17:51:09.804Z,6.87
2019-02-28T17:53:46.548Z,7.53
2019-02-28T17:56:46.618Z,6.70
2019-02-28T18:00:00.518Z,5.83
2019-02-28T18:03:22.013Z,6.92
2019-02-28T18:06:33.665Z,7.20
2019-02-28T18:09:41.586Z,6.40
2019-02-28T18:12:35.566Z,6.95
2019-02-28T18:15:42.117Z,7.03
2019-02-28T18:18:46.121Z,7.53
2019-02-28T18:21:37.485Z,6.17
2019-02-28T18:24:51.509Z,6.90
2019-02-28T18:28:12.930Z,7.20
2019-02-28T18:31:12.368Z,6.55
2019-02-28T18:33:45.750Z,7.35
2019-02-28T18:36:15.499Z,6.70
2019-02-28T18:38:43.136Z,7.75
2019-02-28T18:41:10.810Z,6.85
2019-02-28T18:43:40.358Z,7.78
2019-02-28T18:46:07.932Z,7.50
2019-02-28T18:48:35.486Z,7.00
2019-02-28T18:51:03.399Z,7.30
2019-02-28T18:53:31.049Z,6.95
2019-02-28T18:55:58.551Z,8.60
2019-02-28T18:58:26.392Z,14.75
2019-02-28T19:00:54.172Z,18.02
2019-02-28T19:03:22.159Z,12.37
2019-02-28T19:05:49.744Z,14.80
2019-02-28T19:08:17.202Z,9.33
2019-02-28T19:10:44.685Z,8.45
2019-02-28T19:13:13.009Z,7.47
2019-02-28T19:15:40.398Z,8.18
2019-02-28T19:18:08.492Z,8.30
2019-02-28T19:20:36.176Z,8.08
2019-02-28T19:23:03.717Z,8.50
2019-02-28T19:25:31.392Z,8.25
2019-02-28T19:27:59.147Z,8.85
2019-02-28T19:30:27.029Z,8.50
2019-02-28T19:32:54.691Z,8.80
2019-02-28T19:35:22.304Z,9.85
2019-02-28T19:37:49.737Z,8.80
2019-02-28T19:40:17.249Z,9.65
2019-02-28T19:42:44.729Z,8.20
2019-02-28T19:45:12.808Z,8.55
2019-02-28T19:47:40.331Z,8.43
2019-02-28T19:50:08.908Z,8.48
2019-02-28T19:52:36.443Z,9.80
2019-02-28T19:55:04.420Z,8.78
2019-02-28T19:57:32.675Z,9.35
2019-02-28T20:00:00.374Z,8.95
2019-02-28T20:02:27.797Z,10.08
2019-02-28T20:04:55.403Z,8.55
2019-02-28T20:07:23.463Z,9.28
2019-02-28T20:09:51.136Z,9.95
2019-02-28T20:12:18.613Z,9.33
2019-02-28T20:14:46.521Z,9.45
2019-02-28T20:17:14.265Z,8.95
2019-02-28T20:19:41.650Z,8.40
2019-02-28T20:22:09.352Z,7.97
2019-02-28T20:24:37.018Z,8.53
2019-02-28T20:27:04.510Z,9.10
2019-02-28T20:29:32.191Z,7.55
2019-02-28T20:31:59.753Z,8.15
2019-02-28T20:34:29.106Z,7.35
2019-02-28T20:36:58.030Z,7.62
2019-02-28T20:39:26.236Z,8.23
2019-02-28T20:41:54.501Z,6.80
2019-02-28T20:44:22.179Z,6.62
2019-02-28T20:46:49.579Z,6.67
2019-02-28T20:49:17.060Z,6.65
2019-02-28T20:51:54.634Z,6.28
2019-02-28T20:54:14.543Z,5.83
2019-02-28T20:56:42.152Z,6.53
2019-02-28T20:59:10.159Z,6.60
2019-02-28T21:01:38.147Z,6.65
2019-02-28T21:04:05.795Z,5.67
2019-02-28T21:06:33.487Z,5.83
2019-02-28T21:09:01.147Z,5.55
2019-02-28T21:11:28.586Z,6.90
2019-02-28T21:13:56.363Z,6.08
2019-02-28T21:16:23.834Z,5.20
2019-02-28T21:18:51.332Z,5.80
2019-02-28T21:21:18.792Z,5.45
2019-02-28T21:23:46.602Z,5.85
2019-02-28T21:26:14.422Z,5.15
2019-02-28T21:28:41.875Z,4.92
2019-02-28T21:31:09.322Z,6.30
2019-02-28T21:33:36.742Z,5.30
2019-02-28T21:36:04.204Z,4.90
2019-02-28T21:38:32.010Z,4.87
2019-02-28T21:44:29.885Z,4.47
2019-02-28T21:46:57.920Z,4.00
2019-02-28T21:49:25.309Z,3.90
2019-02-28T21:51:53.669Z,3.90
2019-02-28T21:54:21.135Z,3.72
2019-02-28T21:56:48.525Z,4.20
2019-02-28T21:59:16.461Z,5.03
2019-02-28T22:01:44.076Z,3.98
2019-02-28T22:04:11.473Z,3.55
2019-02-28T22:06:38.873Z,4.20
2019-02-28T22:09:07.662Z,3.77
2019-02-28T22:11:35.202Z,4.53
2019-02-28T22:14:02.608Z,3.87
2019-02-28T22:16:29.927Z,4.22
2019-02-28T22:18:58.309Z,3.77
2019-02-28T22:21:26.121Z,4.83
2019-02-28T22:23:53.796Z,4.53
2019-02-28T22:26:21.253Z,3.35
2019-02-28T22:28:48.954Z,3.25
2019-02-28T22:31:45.640Z,3.05
2019-02-28T22:34:23.032Z,3.45
2019-02-28T22:36:50.499Z,3.15
2019-02-28T22:39:17.947Z,3.37
2019-02-28T22:41:45.718Z,3.08
2019-02-28T22:44:13.639Z,3.42
2019-02-28T22:46:41.099Z,3.27
2019-02-28T22:49:08.816Z,3.27
2019-02-28T22:51:36.249Z,3.52
2019-02-28T22:54:03.790Z,3.22
2019-02-28T22:56:31.685Z,3.72
2019-02-28T22:58:59.813Z,4.35
2019-02-28T23:01:27.450Z,3.33
2019-02-28T23:03:55.348Z,3.37
2019-02-28T23:06:22.796Z,3.92
2019-02-28T23:08:50.205Z,3.40
2019-02-28T23:11:18.107Z,4.12
2019-02-28T23:13:45.479Z,3.87
2019-02-28T23:16:12.836Z,3.15
2019-02-28T23:18:40.129Z,3.85
2019-02-28T23:21:07.800Z,3.45
2019-02-28T23:23:35.748Z,3.30
2019-02-28T23:26:06.486Z,4.40
2019-02-28T23:28:36.110Z,4.30
2019-02-28T23:31:45.446Z,3.83
2019-02-28T23:34:18.699Z,3.67
2019-02-28T23:36:46.155Z,3.62
2019-02-28T23:39:13.598Z,3.85
2019-02-28T23:41:41.357Z,3.50
2019-02-28T23:44:08.744Z,2.92
2019-02-28T23:46:36.240Z,3.20
2019-02-28T23:49:03.691Z,3.30
2019-02-28T23:51:31.151Z,3.02
2019-02-28T23:53:58.587Z,2.98
2019-02-28T23:56:26.000Z,2.92
2019-02-28T23:58:53.482Z,3.37
